Current River (Missouri), Doniphan (07068000)

StateMissouriCurrentPotential (2660 cfs)
RiverCurrent RiverFlood - The river is flooding. Obstacles can be treacherous or deadly. The river should be avoided at this stage for casual trips and definitely for the inexperienced. Trips should be attempted only with protective gear and equipment.Flood(none)
Updated2019-10-13 19:30 (43 minutes ago)High - The river is high and potentially dangerous, especially for the young and / or inexperienced. Normal stream obstacles are sometimes difficult to navigate. Extended distances can be attempted, but canoe travel may not be advisable.High(none)
Discharge2660 cfs (median: 1420 cfs)Good - Conditions are ideal for a canoe or kayak. Boats typically will drag on fewer than one-quarter of riffles, if at all, and portages are unnecessary or rare. Normal float lengths can be attempted without a problem.Good(none)
Height0.69 feetLow - River is low but can still be floated. Some riffles are okay but most come with significant dragging and might need a portage. Float lengths should be reduced to accommodate low flow, dragging, and portages.Low(none)
TrendFalling (rising over 24 hours)Poor - River is too low to float comfortably. Most or all riffles will drag or must be portaged and some obstacles (such as slick shelf rock) cause undue problems. Avoid the river at this stage for casual paddling trips.Poor(none)
USGSExternal icon USGS Site for Doniphan (07068000)LocationExternal icon Google Maps

Trending Data

Plot Image
ObservationHeightDischargeMaximum
Discharge
Minimum
Discharge
Mean
Discharge
P05P10P20P25P50
(Median)
P75P80P90P95
2019-10-13 19:30 0.69 2660 5470 (1950) 852 (1957) 1580 1040 1070 1160 1180 1420 1720 1850 2180 2930
2019-10-13 18:30 0.72 2700 5470 (1950) 852 (1957) 1580 1040 1070 1160 1180 1420 1720 1850 2180 2930
2019-10-13 17:30 0.74 2720 5470 (1950) 852 (1957) 1580 1040 1070 1160 1180 1420 1720 1850 2180 2930
2019-10-13 16:30 0.76 2740 5470 (1950) 852 (1957) 1580 1040 1070 1160 1180 1420 1720 1850 2180 2930
2019-10-13 15:30 0.79 2780 5470 (1950) 852 (1957) 1580 1040 1070 1160 1180 1420 1720 1850 2180 2930
2019-10-13 14:30 0.80 2790 5470 (1950) 852 (1957) 1580 1040 1070 1160 1180 1420 1720 1850 2180 2930
2019-10-13 13:30 0.82 2810 5470 (1950) 852 (1957) 1580 1040 1070 1160 1180 1420 1720 1850 2180 2930
2019-10-13 12:30 0.83 2820 5470 (1950) 852 (1957) 1580 1040 1070 1160 1180 1420 1720 1850 2180 2930
2019-10-13 11:30 0.84 2840 5470 (1950) 852 (1957) 1580 1040 1070 1160 1180 1420 1720 1850 2180 2930
2019-10-13 10:30 0.85 2850 5470 (1950) 852 (1957) 1580 1040 1070 1160 1180 1420 1720 1850 2180 2930
2019-10-13 09:30 0.86 2860 5470 (1950) 852 (1957) 1580 1040 1070 1160 1180 1420 1720 1850 2180 2930
2019-10-13 08:30 0.86 2860 5470 (1950) 852 (1957) 1580 1040 1070 1160 1180 1420 1720 1850 2180 2930
2019-10-13 07:30 0.88 2880 5470 (1950) 852 (1957) 1580 1040 1070 1160 1180 1420 1720 1850 2180 2930
2019-10-13 06:30 0.86 2860 5470 (1950) 852 (1957) 1580 1040 1070 1160 1180 1420 1720 1850 2180 2930
2019-10-13 05:30 0.84 2840 5470 (1950) 852 (1957) 1580 1040 1070 1160 1180 1420 1720 1850 2180 2930
2019-10-13 04:30 0.80 2790 5470 (1950) 852 (1957) 1580 1040 1070 1160 1180 1420 1720 1850 2180 2930
2019-10-13 03:30 0.74 2720 5470 (1950) 852 (1957) 1580 1040 1070 1160 1180 1420 1720 1850 2180 2930
2019-10-13 02:30 0.69 2660 5470 (1950) 852 (1957) 1580 1040 1070 1160 1180 1420 1720 1850 2180 2930
2019-10-13 01:30 0.64 2600 5470 (1950) 852 (1957) 1580 1040 1070 1160 1180 1420 1720 1850 2180 2930
2019-10-13 00:30 0.59 2550 5470 (1950) 852 (1957) 1580 1040 1070 1160 1180 1420 1720 1850 2180 2930
2019-10-12 23:30 0.57 2520 5120 (1950) 852 (1957) 1570 998 1070 1160 1190 1420 1710 1810 2110 2680
2019-10-12 22:30 0.54 2490 5120 (1950) 852 (1957) 1570 998 1070 1160 1190 1420 1710 1810 2110 2680
2019-10-12 21:30 0.52 2470 5120 (1950) 852 (1957) 1570 998 1070 1160 1190 1420 1710 1810 2110 2680
2019-10-12 20:30 0.51 2460 5120 (1950) 852 (1957) 1570 998 1070 1160 1190 1420 1710 1810 2110 2680
2019-10-12 19:30 0.48 2420 5120 (1950) 852 (1957) 1570 998 1070 1160 1190 1420 1710 1810 2110 2680
2019-10-12 18:30 0.46 2400 5120 (1950) 852 (1957) 1570 998 1070 1160 1190 1420 1710 1810 2110 2680
2019-10-12 17:30 0.44 2380 5120 (1950) 852 (1957) 1570 998 1070 1160 1190 1420 1710 1810 2110 2680
2019-10-12 16:30 0.39 2330 5120 (1950) 852 (1957) 1570 998 1070 1160 1190 1420 1710 1810 2110 2680
2019-10-12 15:30 0.36 2290 5120 (1950) 852 (1957) 1570 998 1070 1160 1190 1420 1710 1810 2110 2680
2019-10-12 14:30 0.32 2250 5120 (1950) 852 (1957) 1570 998 1070 1160 1190 1420 1710 1810 2110 2680
2019-10-12 13:30 0.27 2200 5120 (1950) 852 (1957) 1570 998 1070 1160 1190 1420 1710 1810 2110 2680
2019-10-12 12:30 0.22 2140 5120 (1950) 852 (1957) 1570 998 1070 1160 1190 1420 1710 1810 2110 2680
2019-10-12 11:30 0.17 2090 5120 (1950) 852 (1957) 1570 998 1070 1160 1190 1420 1710 1810 2110 2680
2019-10-12 10:30 0.13 2050 5120 (1950) 852 (1957) 1570 998 1070 1160 1190 1420 1710 1810 2110 2680
2019-10-12 09:30 0.08 2000 5120 (1950) 852 (1957) 1570 998 1070 1160 1190 1420 1710 1810 2110 2680
2019-10-12 08:30 0.05 1970 5120 (1950) 852 (1957) 1570 998 1070 1160 1190 1420 1710 1810 2110 2680
2019-10-12 07:30 0.01 1930 5120 (1950) 852 (1957) 1570 998 1070 1160 1190 1420 1710 1810 2110 2680
2019-10-12 06:30 -0.03 1890 5120 (1950) 852 (1957) 1570 998 1070 1160 1190 1420 1710 1810 2110 2680
2019-10-12 05:30 -0.05 1870 5120 (1950) 852 (1957) 1570 998 1070 1160 1190 1420 1710 1810 2110 2680
2019-10-12 04:30 -0.07 1850 5120 (1950) 852 (1957) 1570 998 1070 1160 1190 1420 1710 1810 2110 2680
2019-10-12 03:30 -0.08 1840 5120 (1950) 852 (1957) 1570 998 1070 1160 1190 1420 1710 1810 2110 2680
2019-10-12 02:30 -0.10 1820 5120 (1950) 852 (1957) 1570 998 1070 1160 1190 1420 1710 1810 2110 2680
2019-10-12 01:30 -0.10 1820 5120 (1950) 852 (1957) 1570 998 1070 1160 1190 1420 1710 1810 2110 2680
2019-10-12 00:30 -0.11 1810 5120 (1950) 852 (1957) 1570 998 1070 1160 1190 1420 1710 1810 2110 2680
2019-10-11 23:30 -0.12 1800 6660 (2010) 852 (1957) 1590 1020 1070 1150 1200 1430 1700 1790 2270 2740
2019-10-11 22:30 -0.12 1800 6660 (2010) 852 (1957) 1590 1020 1070 1150 1200 1430 1700 1790 2270 2740
2019-10-11 21:30 -0.12 1800 6660 (2010) 852 (1957) 1590 1020 1070 1150 1200 1430 1700 1790 2270 2740
2019-10-11 20:30 -0.12 1800 6660 (2010) 852 (1957) 1590 1020 1070 1150 1200 1430 1700 1790 2270 2740
2019-10-11 19:30 -0.11 1810 6660 (2010) 852 (1957) 1590 1020 1070 1150 1200 1430 1700 1790 2270 2740
2019-10-11 18:30 -0.12 1800 6660 (2010) 852 (1957) 1590 1020 1070 1150 1200 1430 1700 1790 2270 2740
2019-10-11 17:30 -0.11 1810 6660 (2010) 852 (1957) 1590 1020 1070 1150 1200 1430 1700 1790 2270 2740
2019-10-11 16:30 -0.11 1810 6660 (2010) 852 (1957) 1590 1020 1070 1150 1200 1430 1700 1790 2270 2740
2019-10-11 15:30 -0.09 1830 6660 (2010) 852 (1957) 1590 1020 1070 1150 1200 1430 1700 1790 2270 2740
2019-10-11 14:30 -0.09 1830 6660 (2010) 852 (1957) 1590 1020 1070 1150 1200 1430 1700 1790 2270 2740
2019-10-11 13:30 -0.07 1850 6660 (2010) 852 (1957) 1590 1020 1070 1150 1200 1430 1700 1790 2270 2740
2019-10-11 12:30 -0.07 1850 6660 (2010) 852 (1957) 1590 1020 1070 1150 1200 1430 1700 1790 2270 2740
2019-10-11 11:30 -0.07 1850 6660 (2010) 852 (1957) 1590 1020 1070 1150 1200 1430 1700 1790 2270 2740
2019-10-11 10:30 -0.08 1840 6660 (2010) 852 (1957) 1590 1020 1070 1150 1200 1430 1700 1790 2270 2740
2019-10-11 09:30 -0.09 1830 6660 (2010) 852 (1957) 1590 1020 1070 1150 1200 1430 1700 1790 2270 2740
2019-10-11 08:30 -0.10 1820 6660 (2010) 852 (1957) 1590 1020 1070 1150 1200 1430 1700 1790 2270 2740
2019-10-11 07:30 -0.12 1800 6660 (2010) 852 (1957) 1590 1020 1070 1150 1200 1430 1700 1790 2270 2740
2019-10-11 06:30 -0.13 1790 6660 (2010) 852 (1957) 1590 1020 1070 1150 1200 1430 1700 1790 2270 2740
2019-10-11 05:30 -0.15 1770 6660 (2010) 852 (1957) 1590 1020 1070 1150 1200 1430 1700 1790 2270 2740
2019-10-11 04:30 -0.17 1750 6660 (2010) 852 (1957) 1590 1020 1070 1150 1200 1430 1700 1790 2270 2740
2019-10-11 03:30 -0.17 1750 6660 (2010) 852 (1957) 1590 1020 1070 1150 1200 1430 1700 1790 2270 2740
2019-10-11 02:30 -0.18 1740 6660 (2010) 852 (1957) 1590 1020 1070 1150 1200 1430 1700 1790 2270 2740
2019-10-11 01:30 -0.18 1740 6660 (2010) 852 (1957) 1590 1020 1070 1150 1200 1430 1700 1790 2270 2740
2019-10-11 00:30 -0.17 1750 6660 (2010) 852 (1957) 1590 1020 1070 1150 1200 1430 1700 1790 2270 2740
2019-10-10 23:30 -0.19 1730 5080 (2010) 852 (1957) 1600 993 1080 1150 1200 1440 1720 1790 2160 3140
2019-10-10 22:30 -0.18 1740 5080 (2010) 852 (1957) 1600 993 1080 1150 1200 1440 1720 1790 2160 3140
2019-10-10 21:30 -0.18 1740 5080 (2010) 852 (1957) 1600 993 1080 1150 1200 1440 1720 1790 2160 3140
2019-10-10 20:30 -0.18 1740 5080 (2010) 852 (1957) 1600 993 1080 1150 1200 1440 1720 1790 2160 3140
2019-10-10 19:30 -0.18 1740 5080 (2010) 852 (1957) 1600 993 1080 1150 1200 1440 1720 1790 2160 3140
2019-10-10 18:30 -0.17 1750 5080 (2010) 852 (1957) 1600 993 1080 1150 1200 1440 1720 1790 2160 3140
2019-10-10 17:30 -0.18 1740 5080 (2010) 852 (1957) 1600 993 1080 1150 1200 1440 1720 1790 2160 3140
2019-10-10 16:30 -0.17 1750 5080 (2010) 852 (1957) 1600 993 1080 1150 1200 1440 1720 1790 2160 3140
2019-10-10 15:30 -0.17 1750 5080 (2010) 852 (1957) 1600 993 1080 1150 1200 1440 1720 1790 2160 3140
2019-10-10 14:30 -0.18 1740 5080 (2010) 852 (1957) 1600 993 1080 1150 1200 1440 1720 1790 2160 3140
2019-10-10 13:30 -0.17 1750 5080 (2010) 852 (1957) 1600 993 1080 1150 1200 1440 1720 1790 2160 3140
2019-10-10 12:30 -0.18 1740 5080 (2010) 852 (1957) 1600 993 1080 1150 1200 1440 1720 1790 2160 3140
2019-10-10 11:30 -0.17 1750 5080 (2010) 852 (1957) 1600 993 1080 1150 1200 1440 1720 1790 2160 3140
2019-10-10 10:30 -0.17 1750 5080 (2010) 852 (1957) 1600 993 1080 1150 1200 1440 1720 1790 2160 3140
2019-10-10 09:30 -0.17 1750 5080 (2010) 852 (1957) 1600 993 1080 1150 1200 1440 1720 1790 2160 3140
2019-10-10 08:30 -0.17 1750 5080 (2010) 852 (1957) 1600 993 1080 1150 1200 1440 1720 1790 2160 3140
2019-10-10 07:30 -0.17 1750 5080 (2010) 852 (1957) 1600 993 1080 1150 1200 1440 1720 1790 2160 3140
2019-10-10 06:30 -0.17 1750 5080 (2010) 852 (1957) 1600 993 1080 1150 1200 1440 1720 1790 2160 3140
2019-10-10 05:30 -0.17 1750 5080 (2010) 852 (1957) 1600 993 1080 1150 1200 1440 1720 1790 2160 3140
2019-10-10 04:30 -0.17 1750 5080 (2010) 852 (1957) 1600 993 1080 1150 1200 1440 1720 1790 2160 3140
2019-10-10 03:30 -0.16 1760 5080 (2010) 852 (1957) 1600 993 1080 1150 1200 1440 1720 1790 2160 3140
2019-10-10 02:30 -0.16 1760 5080 (2010) 852 (1957) 1600 993 1080 1150 1200 1440 1720 1790 2160 3140
2019-10-10 01:30 -0.16 1760 5080 (2010) 852 (1957) 1600 993 1080 1150 1200 1440 1720 1790 2160 3140
2019-10-10 00:30 -0.15 1770 5080 (2010) 852 (1957) 1600 993 1080 1150 1200 1440 1720 1790 2160 3140
2019-10-09 23:30 -0.15 1770 8620 (1937) 852 (1957) 1670 985 1080 1160 1200 1430 1720 1800 2400 3590
2019-10-09 22:30 -0.15 1770 8620 (1937) 852 (1957) 1670 985 1080 1160 1200 1430 1720 1800 2400 3590
2019-10-09 21:30 -0.15 1770 8620 (1937) 852 (1957) 1670 985 1080 1160 1200 1430 1720 1800 2400 3590
2019-10-09 20:30 -0.15 1770 8620 (1937) 852 (1957) 1670 985 1080 1160 1200 1430 1720 1800 2400 3590
2019-10-09 19:30 -0.15 1770 8620 (1937) 852 (1957) 1670 985 1080 1160 1200 1430 1720 1800 2400 3590
2019-10-09 18:30 -0.14 1780 8620 (1937) 852 (1957) 1670 985 1080 1160 1200 1430 1720 1800 2400 3590
2019-10-09 17:30 -0.15 1770 8620 (1937) 852 (1957) 1670 985 1080 1160 1200 1430 1720 1800 2400 3590
2019-10-09 16:30 -0.14 1780 8620 (1937) 852 (1957) 1670 985 1080 1160 1200 1430 1720 1800 2400 3590
2019-10-09 15:30 -0.14 1780 8620 (1937) 852 (1957) 1670 985 1080 1160 1200 1430 1720 1800 2400 3590
2019-10-09 14:30 -0.14 1780 8620 (1937) 852 (1957) 1670 985 1080 1160 1200 1430 1720 1800 2400 3590
2019-10-09 13:30 -0.14 1780 8620 (1937) 852 (1957) 1670 985 1080 1160 1200 1430 1720 1800 2400 3590
2019-10-09 12:30 -0.14 1780 8620 (1937) 852 (1957) 1670 985 1080 1160 1200 1430 1720 1800 2400 3590
2019-10-09 11:30 -0.13 1790 8620 (1937) 852 (1957) 1670 985 1080 1160 1200 1430 1720 1800 2400 3590
2019-10-09 10:30 -0.14 1780 8620 (1937) 852 (1957) 1670 985 1080 1160 1200 1430 1720 1800 2400 3590
2019-10-09 09:30 -0.14 1780 8620 (1937) 852 (1957) 1670 985 1080 1160 1200 1430 1720 1800 2400 3590
2019-10-09 08:30 -0.12 1800 8620 (1937) 852 (1957) 1670 985 1080 1160 1200 1430 1720 1800 2400 3590
2019-10-09 07:30 -0.13 1790 8620 (1937) 852 (1957) 1670 985 1080 1160 1200 1430 1720 1800 2400 3590
2019-10-09 06:30 -0.12 1800 8620 (1937) 852 (1957) 1670 985 1080 1160 1200 1430 1720 1800 2400 3590
2019-10-09 05:30 -0.12 1800 8620 (1937) 852 (1957) 1670 985 1080 1160 1200 1430 1720 1800 2400 3590
2019-10-09 04:30 -0.12 1800 8620 (1937) 852 (1957) 1670 985 1080 1160 1200 1430 1720 1800 2400 3590
2019-10-09 03:30 -0.11 1810 8620 (1937) 852 (1957) 1670 985 1080 1160 1200 1430 1720 1800 2400 3590
2019-10-09 02:30 -0.11 1810 8620 (1937) 852 (1957) 1670 985 1080 1160 1200 1430 1720 1800 2400 3590
2019-10-09 01:30 -0.11 1810 8620 (1937) 852 (1957) 1670 985 1080 1160 1200 1430 1720 1800 2400 3590
2019-10-09 00:30 -0.10 1820 8620 (1937) 852 (1957) 1670 985 1080 1160 1200 1430 1720 1800 2400 3590
2019-10-08 23:30 -0.11 1810 5650 (1950) 852 (1957) 1620 989 1110 1160 1200 1390 1710 1770 2270 3250
2019-10-08 22:30 -0.11 1810 5650 (1950) 852 (1957) 1620 989 1110 1160 1200 1390 1710 1770 2270 3250
2019-10-08 21:30 -0.10 1820 5650 (1950) 852 (1957) 1620 989 1110 1160 1200 1390 1710 1770 2270 3250
2019-10-08 20:30 -0.09 1830 5650 (1950) 852 (1957) 1620 989 1110 1160 1200 1390 1710 1770 2270 3250
2019-10-08 19:30 -0.10 1820 5650 (1950) 852 (1957) 1620 989 1110 1160 1200 1390 1710 1770 2270 3250
2019-10-08 18:30 -0.08 1840 5650 (1950) 852 (1957) 1620 989 1110 1160 1200 1390 1710 1770 2270 3250
2019-10-08 17:30 -0.08 1840 5650 (1950) 852 (1957) 1620 989 1110 1160 1200 1390 1710 1770 2270 3250
2019-10-08 16:30 -0.08 1840 5650 (1950) 852 (1957) 1620 989 1110 1160 1200 1390 1710 1770 2270 3250
2019-10-08 15:30 -0.08 1840 5650 (1950) 852 (1957) 1620 989 1110 1160 1200 1390 1710 1770 2270 3250
2019-10-08 14:30 -0.07 1850 5650 (1950) 852 (1957) 1620 989 1110 1160 1200 1390 1710 1770 2270 3250
2019-10-08 13:30 -0.07 1850 5650 (1950) 852 (1957) 1620 989 1110 1160 1200 1390 1710 1770 2270 3250
2019-10-08 12:30 -0.07 1850 5650 (1950) 852 (1957) 1620 989 1110 1160 1200 1390 1710 1770 2270 3250
2019-10-08 11:30 -0.06 1860 5650 (1950) 852 (1957) 1620 989 1110 1160 1200 1390 1710 1770 2270 3250
2019-10-08 10:30 -0.07 1850 5650 (1950) 852 (1957) 1620 989 1110 1160 1200 1390 1710 1770 2270 3250
2019-10-08 09:30 -0.05 1870 5650 (1950) 852 (1957) 1620 989 1110 1160 1200 1390 1710 1770 2270 3250
2019-10-08 08:30 -0.05 1870 5650 (1950) 852 (1957) 1620 989 1110 1160 1200 1390 1710 1770 2270 3250
2019-10-08 07:30 -0.05 1870 5650 (1950) 852 (1957) 1620 989 1110 1160 1200 1390 1710 1770 2270 3250
2019-10-08 06:30 -0.04 1880 5650 (1950) 852 (1957) 1620 989 1110 1160 1200 1390 1710 1770 2270 3250
2019-10-08 05:30 -0.04 1880 5650 (1950) 852 (1957) 1620 989 1110 1160 1200 1390 1710 1770 2270 3250
2019-10-08 04:30 -0.03 1890 5650 (1950) 852 (1957) 1620 989 1110 1160 1200 1390 1710 1770 2270 3250
2019-10-08 03:30 -0.04 1880 5650 (1950) 852 (1957) 1620 989 1110 1160 1200 1390 1710 1770 2270 3250
2019-10-08 02:30 -0.02 1900 5650 (1950) 852 (1957) 1620 989 1110 1160 1200 1390 1710 1770 2270 3250
2019-10-08 01:30 -0.04 1880 5650 (1950) 852 (1957) 1620 989 1110 1160 1200 1390 1710 1770 2270 3250
2019-10-08 00:30 -0.03 1890 5650 (1950) 852 (1957) 1620 989 1110 1160 1200 1390 1710 1770 2270 3250
2019-10-07 23:30 -0.04 1880 7480 (1950) 860 (1957) 1640 1010 1100 1160 1210 1430 1690 1790 2330 2860
2019-10-07 22:30 -0.04 1880 7480 (1950) 860 (1957) 1640 1010 1100 1160 1210 1430 1690 1790 2330 2860
2019-10-07 21:30 -0.04 1880 7480 (1950) 860 (1957) 1640 1010 1100 1160 1210 1430 1690 1790 2330 2860
2019-10-07 20:30 -0.04 1880 7480 (1950) 860 (1957) 1640 1010 1100 1160 1210 1430 1690 1790 2330 2860
2019-10-07 19:30 -0.04 1880 7480 (1950) 860 (1957) 1640 1010 1100 1160 1210 1430 1690 1790 2330 2860
2019-10-07 18:30 -0.04 1880 7480 (1950) 860 (1957) 1640 1010 1100 1160 1210 1430 1690 1790 2330 2860
2019-10-07 17:30 -0.05 1870 7480 (1950) 860 (1957) 1640 1010 1100 1160 1210 1430 1690 1790 2330 2860
2019-10-07 16:30 -0.05 1870 7480 (1950) 860 (1957) 1640 1010 1100 1160 1210 1430 1690 1790 2330 2860
2019-10-07 15:30 -0.05 1870 7480 (1950) 860 (1957) 1640 1010 1100 1160 1210 1430 1690 1790 2330 2860
2019-10-07 14:30 -0.06 1860 7480 (1950) 860 (1957) 1640 1010 1100 1160 1210 1430 1690 1790 2330 2860
2019-10-07 13:30 -0.05 1870 7480 (1950) 860 (1957) 1640 1010 1100 1160 1210 1430 1690 1790 2330 2860
2019-10-07 12:30 -0.05 1870 7480 (1950) 860 (1957) 1640 1010 1100 1160 1210 1430 1690 1790 2330 2860
2019-10-07 11:30 -0.06 1860 7480 (1950) 860 (1957) 1640 1010 1100 1160 1210 1430 1690 1790 2330 2860
2019-10-07 10:30 -0.05 1870 7480 (1950) 860 (1957) 1640 1010 1100 1160 1210 1430 1690 1790 2330 2860
2019-10-07 09:30 -0.06 1860 7480 (1950) 860 (1957) 1640 1010 1100 1160 1210 1430 1690 1790 2330 2860
2019-10-07 08:30 -0.05 1870 7480 (1950) 860 (1957) 1640 1010 1100 1160 1210 1430 1690 1790 2330 2860
2019-10-07 07:30 -0.05 1870 7480 (1950) 860 (1957) 1640 1010 1100 1160 1210 1430 1690 1790 2330 2860
2019-10-07 06:30 -0.05 1870 7480 (1950) 860 (1957) 1640 1010 1100 1160 1210 1430 1690 1790 2330 2860
2019-10-07 05:30 -0.05 1870 7480 (1950) 860 (1957) 1640 1010 1100 1160 1210 1430 1690 1790 2330 2860
2019-10-07 04:30 -0.06 1860 7480 (1950) 860 (1957) 1640 1010 1100 1160 1210 1430 1690 1790 2330 2860
2019-10-07 03:30 -0.08 1840 7480 (1950) 860 (1957) 1640 1010 1100 1160 1210 1430 1690 1790 2330 2860
2019-10-07 02:30 -0.09 1830 7480 (1950) 860 (1957) 1640 1010 1100 1160 1210 1430 1690 1790 2330 2860
2019-10-07 01:30 -0.10 1820 7480 (1950) 860 (1957) 1640 1010 1100 1160 1210 1430 1690 1790 2330 2860
2019-10-07 00:30 -0.10 1820 7480 (1950) 860 (1957) 1640 1010 1100 1160 1210 1430 1690 1790 2330 2860
2019-10-06 23:30 -0.10 1820 6190 (1950) 868 (1957) 1620 1020 1100 1180 1200 1430 1720 1820 2310 2780
2019-10-06 22:30 -0.10 1820 6190 (1950) 868 (1957) 1620 1020 1100 1180 1200 1430 1720 1820 2310 2780
2019-10-06 21:30 -0.10 1820 6190 (1950) 868 (1957) 1620 1020 1100 1180 1200 1430 1720 1820 2310 2780
2019-10-06 20:30 -0.10 1820 6190 (1950) 868 (1957) 1620 1020 1100 1180 1200 1430 1720 1820 2310 2780
2019-10-06 19:30 -0.14 1780 6190 (1950) 868 (1957) 1620 1020 1100 1180 1200 1430 1720 1820 2310 2780
2019-10-06 18:30 -0.18 1740 6190 (1950) 868 (1957) 1620 1020 1100 1180 1200 1430 1720 1820 2310 2780
2019-10-06 17:30 -0.20 1720 6190 (1950) 868 (1957) 1620 1020 1100 1180 1200 1430 1720 1820 2310 2780
2019-10-06 16:30 -0.21 1710 6190 (1950) 868 (1957) 1620 1020 1100 1180 1200 1430 1720 1820 2310 2780
2019-10-06 15:30 -0.22 1700 6190 (1950) 868 (1957) 1620 1020 1100 1180 1200 1430 1720 1820 2310 2780
2019-10-06 14:30 -0.22 1700 6190 (1950) 868 (1957) 1620 1020 1100 1180 1200 1430 1720 1820 2310 2780
2019-10-06 13:30 -0.22 1700 6190 (1950) 868 (1957) 1620 1020 1100 1180 1200 1430 1720 1820 2310 2780
2019-10-06 12:30 -0.22 1700 6190 (1950) 868 (1957) 1620 1020 1100 1180 1200 1430 1720 1820 2310 2780
2019-10-06 11:30 -0.22 1700 6190 (1950) 868 (1957) 1620 1020 1100 1180 1200 1430 1720 1820 2310 2780
2019-10-06 10:30 -0.21 1710 6190 (1950) 868 (1957) 1620 1020 1100 1180 1200 1430 1720 1820 2310 2780
2019-10-06 09:30 -0.22 1700 6190 (1950) 868 (1957) 1620 1020 1100 1180 1200 1430 1720 1820 2310 2780
2019-10-06 08:30 -0.22 1700 6190 (1950) 868 (1957) 1620 1020 1100 1180 1200 1430 1720 1820 2310 2780
2019-10-06 07:30 -0.20 1720 6190 (1950) 868 (1957) 1620 1020 1100 1180 1200 1430 1720 1820 2310 2780
2019-10-06 06:30 -0.22 1700 6190 (1950) 868 (1957) 1620 1020 1100 1180 1200 1430 1720 1820 2310 2780
2019-10-06 05:30 -0.23 1690 6190 (1950) 868 (1957) 1620 1020 1100 1180 1200 1430 1720 1820 2310 2780
2019-10-06 04:30 -0.25 1680 6190 (1950) 868 (1957) 1620 1020 1100 1180 1200 1430 1720 1820 2310 2780
2019-10-06 03:30 -0.26 1670 6190 (1950) 868 (1957) 1620 1020 1100 1180 1200 1430 1720 1820 2310 2780
2019-10-06 02:30 -0.26 1670 6190 (1950) 868 (1957) 1620 1020 1100 1180 1200 1430 1720 1820 2310 2780
2019-10-06 01:30 -0.26 1670 6190 (1950) 868 (1957) 1620 1020 1100 1180 1200 1430 1720 1820 2310 2780
2019-10-06 00:30 -0.26 1670 6190 (1950) 868 (1957) 1620 1020 1100 1180 1200 1430 1720 1820 2310 2780

A total of 188 rows are displayed for years 1922 through 2018.

Trips for Current River (Missouri), Doniphan (07068000)

DateStartEndDistanceConditionDischargeHeightFishingDetails

A total of 0 rows are displayed.

Condition Descriptions

Fishing Conditions

Fish Species

Notes

Classic Trip List

The classic River Trips application is still available for use. It is updated with the new system using a data retrofit. It is no longer maintained. The original River Trips application is no longer updated (as of 1 Dec 2016) but can be checked for errors or for the condition of the data before it was converted to the new system.